Terminal Aerodrome Forecast
Issued by NWS North Platte, NE

Home | Current Version | Previous Version | Text Only | Print | Product List | Glossary On
Versions: 1 2 3 4 5 6 7 8 9 10 11 12 13 14 15 16 17 18 19 20 21
183
FTUS43 KLBF 281724
TAFLBF
TAF
KLBF 281724Z 2818/2918 28010KT P6SM SCT050
     FM282000 28010KT P6SM SCT045 BKN120
     FM290200 VRB05KT P6SM FEW250
     FM291500 05006KT P6SM FEW200=

USA.gov is the U.S. government's official web portal to all federal, state and local government web resources and services.